sensor_id;sensor_type;location;lat;lon;timestamp;temperature;humidity
14057;DHT22;7103;54.300;10.180;2022-09-29T00:00:25;7.70;1.00
14057;DHT22;7103;54.300;10.180;2022-09-29T00:02:54;7.70;1.00
14057;DHT22;7103;54.300;10.180;2022-09-29T00:05:21;7.70;1.00
14057;DHT22;7103;54.300;10.180;2022-09-29T00:07:48;7.70;1.00
14057;DHT22;7103;54.300;10.180;2022-09-29T00:10:15;7.70;1.00
14057;DHT22;7103;54.300;10.180;2022-09-29T00:12:42;7.70;1.00
14057;DHT22;7103;54.300;10.180;2022-09-29T00:15:09;7.70;1.00
14057;DHT22;7103;54.300;10.180;2022-09-29T00:17:36;7.70;1.00
14057;DHT22;7103;54.300;10.180;2022-09-29T00:20:04;7.70;1.00
14057;DHT22;7103;54.300;10.180;2022-09-29T00:22:31;7.80;1.00
14057;DHT22;7103;54.300;10.180;2022-09-29T00:24:57;7.70;1.00
14057;DHT22;7103;54.300;10.180;2022-09-29T00:27:25;7.70;1.00
14057;DHT22;7103;54.300;10.180;2022-09-29T00:29:51;7.70;1.00
14057;DHT22;7103;54.300;10.180;2022-09-29T00:32:18;7.70;1.00
14057;DHT22;7103;54.300;10.180;2022-09-29T00:34:45;7.70;1.00
14057;DHT22;7103;54.300;10.180;2022-09-29T00:37:12;7.70;1.00
14057;DHT22;7103;54.300;10.180;2022-09-29T00:39:39;7.70;1.00
14057;DHT22;7103;54.300;10.180;2022-09-29T00:42:10;7.70;1.00
14057;DHT22;7103;54.300;10.180;2022-09-29T00:47:20;7.80;1.00
14057;DHT22;7103;54.300;10.180;2022-09-29T00:50:33;7.70;1.00
14057;DHT22;7103;54.300;10.180;2022-09-29T00:53:03;7.70;1.00
14057;DHT22;7103;54.300;10.180;2022-09-29T00:56:04;7.70;1.00
14057;DHT22;7103;54.300;10.180;2022-09-29T01:01:05;7.60;1.00
14057;DHT22;7103;54.300;10.180;2022-09-29T01:03:37;7.60;1.00
14057;DHT22;7103;54.300;10.180;2022-09-29T01:06:11;7.70;1.00
14057;DHT22;7103;54.300;10.180;2022-09-29T01:08:43;7.70;1.00
14057;DHT22;7103;54.300;10.180;2022-09-29T01:11:12;7.60;1.00
14057;DHT22;7103;54.300;10.180;2022-09-29T01:13:40;7.70;1.00
14057;DHT22;7103;54.300;10.180;2022-09-29T01:16:07;7.70;1.00
14057;DHT22;7103;54.300;10.180;2022-09-29T01:18:34;7.70;1.00
14057;DHT22;7103;54.300;10.180;2022-09-29T01:29:39;7.80;1.00
14057;DHT22;7103;54.300;10.180;2022-09-29T01:32:26;7.80;1.00
14057;DHT22;7103;54.300;10.180;2022-09-29T01:35:21;7.70;1.00
14057;DHT22;7103;54.300;10.180;2022-09-29T01:38:01;7.70;1.00
14057;DHT22;7103;54.300;10.180;2022-09-29T01:40:49;7.70;1.00
14057;DHT22;7103;54.300;10.180;2022-09-29T01:43:34;7.70;1.00
14057;DHT22;7103;54.300;10.180;2022-09-29T01:46:25;7.70;1.00
14057;DHT22;7103;54.300;10.180;2022-09-29T01:48:55;7.70;1.00
14057;DHT22;7103;54.300;10.180;2022-09-29T01:51:39;7.80;1.00
14057;DHT22;7103;54.300;10.180;2022-09-29T01:54:24;7.70;1.00
14057;DHT22;7103;54.300;10.180;2022-09-29T01:57:11;7.70;1.00
14057;DHT22;7103;54.300;10.180;2022-09-29T01:59:48;7.80;1.00
14057;DHT22;7103;54.300;10.180;2022-09-29T02:02:22;7.80;1.00
14057;DHT22;7103;54.300;10.180;2022-09-29T02:04:57;7.80;1.00
14057;DHT22;7103;54.300;10.180;2022-09-29T02:07:36;7.80;1.00
14057;DHT22;7103;54.300;10.180;2022-09-29T02:10:09;7.80;1.00
14057;DHT22;7103;54.300;10.180;2022-09-29T02:12:39;7.80;1.00
14057;DHT22;7103;54.300;10.180;2022-09-29T02:15:09;7.80;1.00
14057;DHT22;7103;54.300;10.180;2022-09-29T02:17:41;7.80;1.00
14057;DHT22;7103;54.300;10.180;2022-09-29T02:20:10;7.70;1.00
14057;DHT22;7103;54.300;10.180;2022-09-29T02:22:38;7.70;1.00
14057;DHT22;7103;54.300;10.180;2022-09-29T02:25:08;7.70;1.00
14057;DHT22;7103;54.300;10.180;2022-09-29T02:27:37;7.70;1.00
14057;DHT22;7103;54.300;10.180;2022-09-29T02:30:04;7.80;1.00
14057;DHT22;7103;54.300;10.180;2022-09-29T02:32:34;7.80;1.00
14057;DHT22;7103;54.300;10.180;2022-09-29T02:35:03;7.80;1.00
14057;DHT22;7103;54.300;10.180;2022-09-29T02:58:48;7.90;1.00
14057;DHT22;7103;54.300;10.180;2022-09-29T03:01:16;7.90;1.00
14057;DHT22;7103;54.300;10.180;2022-09-29T03:03:43;7.90;1.00
14057;DHT22;7103;54.300;10.180;2022-09-29T03:06:10;7.90;1.00
14057;DHT22;7103;54.300;10.180;2022-09-29T03:08:39;7.90;1.00
14057;DHT22;7103;54.300;10.180;2022-09-29T03:11:05;7.90;1.00
14057;DHT22;7103;54.300;10.180;2022-09-29T03:13:32;7.90;1.00
14057;DHT22;7103;54.300;10.180;2022-09-29T03:15:59;7.90;1.00
14057;DHT22;7103;54.300;10.180;2022-09-29T03:18:26;7.90;1.00
14057;DHT22;7103;54.300;10.180;2022-09-29T03:20:53;7.90;1.00
14057;DHT22;7103;54.300;10.180;2022-09-29T03:23:21;7.90;1.90
14057;DHT22;7103;54.300;10.180;2022-09-29T03:25:48;7.90;2.90
14057;DHT22;7103;54.300;10.180;2022-09-29T03:28:15;7.90;2.90
14057;DHT22;7103;54.300;10.180;2022-09-29T03:30:42;7.90;8.10
14057;DHT22;7103;54.300;10.180;2022-09-29T03:33:11;7.90;8.80
14057;DHT22;7103;54.300;10.180;2022-09-29T03:35:38;7.90;13.10
14057;DHT22;7103;54.300;10.180;2022-09-29T03:38:10;7.90;13.20
14057;DHT22;7103;54.300;10.180;2022-09-29T03:40:37;7.90;18.20
14057;DHT22;7103;54.300;10.180;2022-09-29T03:43:04;7.90;18.30
14057;DHT22;7103;54.300;10.180;2022-09-29T03:45:30;8.00;20.50
14057;DHT22;7103;54.300;10.180;2022-09-29T03:47:57;7.90;20.60
14057;DHT22;7103;54.300;10.180;2022-09-29T03:50:25;8.00;22.90
14057;DHT22;7103;54.300;10.180;2022-09-29T03:52:51;8.00;23.10
14057;DHT22;7103;54.300;10.180;2022-09-29T03:55:18;8.00;20.60
14057;DHT22;7103;54.300;10.180;2022-09-29T03:57:45;8.00;18.30
14057;DHT22;7103;54.300;10.180;2022-09-29T04:00:12;7.90;16.40
14057;DHT22;7103;54.300;10.180;2022-09-29T04:02:40;7.90;15.50
14057;DHT22;7103;54.300;10.180;2022-09-29T04:05:07;7.90;16.00
14057;DHT22;7103;54.300;10.180;2022-09-29T04:07:34;7.90;17.00
14057;DHT22;7103;54.300;10.180;2022-09-29T04:10:01;7.90;18.20
14057;DHT22;7103;54.300;10.180;2022-09-29T04:12:27;7.90;19.00
14057;DHT22;7103;54.300;10.180;2022-09-29T04:14:54;7.90;18.20
14057;DHT22;7103;54.300;10.180;2022-09-29T04:17:21;7.90;18.20
14057;DHT22;7103;54.300;10.180;2022-09-29T04:19:48;7.90;23.10
14057;DHT22;7103;54.300;10.180;2022-09-29T04:22:15;8.00;23.10
14057;DHT22;7103;54.300;10.180;2022-09-29T04:24:45;8.00;23.20
14057;DHT22;7103;54.300;10.180;2022-09-29T04:27:14;8.00;18.30
14057;DHT22;7103;54.300;10.180;2022-09-29T04:29:41;8.00;13.70
14057;DHT22;7103;54.300;10.180;2022-09-29T04:32:08;8.00;13.80
14057;DHT22;7103;54.300;10.180;2022-09-29T04:34:35;8.00;9.90
14057;DHT22;7103;54.300;10.180;2022-09-29T04:37:02;8.00;3.00
14057;DHT22;7103;54.300;10.180;2022-09-29T04:39:29;8.00;1.00
14057;DHT22;7103;54.300;10.180;2022-09-29T04:41:56;8.00;2.80
14057;DHT22;7103;54.300;10.180;2022-09-29T04:44:23;8.00;1.00
14057;DHT22;7103;54.300;10.180;2022-09-29T04:46:50;8.00;1.00
14057;DHT22;7103;54.300;10.180;2022-09-29T04:49:18;8.00;1.00
14057;DHT22;7103;54.300;10.180;2022-09-29T04:51:45;8.10;1.00
14057;DHT22;7103;54.300;10.180;2022-09-29T04:54:12;8.10;1.00
14057;DHT22;7103;54.300;10.180;2022-09-29T04:56:39;8.10;1.00
14057;DHT22;7103;54.300;10.180;2022-09-29T04:59:06;8.10;1.00
14057;DHT22;7103;54.300;10.180;2022-09-29T05:01:34;8.10;1.00
14057;DHT22;7103;54.300;10.180;2022-09-29T05:04:01;8.20;1.00
14057;DHT22;7103;54.300;10.180;2022-09-29T05:06:28;8.10;1.00
14057;DHT22;7103;54.300;10.180;2022-09-29T05:08:55;8.10;1.00
14057;DHT22;7103;54.300;10.180;2022-09-29T05:11:22;8.20;1.00
14057;DHT22;7103;54.300;10.180;2022-09-29T05:13:49;8.20;1.00
14057;DHT22;7103;54.300;10.180;2022-09-29T05:16:16;8.10;1.00
14057;DHT22;7103;54.300;10.180;2022-09-29T05:18:43;8.20;1.00
14057;DHT22;7103;54.300;10.180;2022-09-29T05:21:10;8.20;1.00
14057;DHT22;7103;54.300;10.180;2022-09-29T05:23:55;8.20;1.00
14057;DHT22;7103;54.300;10.180;2022-09-29T05:26:22;8.20;1.00
14057;DHT22;7103;54.300;10.180;2022-09-29T05:28:49;8.20;1.00
14057;DHT22;7103;54.300;10.180;2022-09-29T05:31:16;8.20;1.00
14057;DHT22;7103;54.300;10.180;2022-09-29T05:33:43;8.20;1.00
14057;DHT22;7103;54.300;10.180;2022-09-29T05:36:11;8.30;1.00
14057;DHT22;7103;54.300;10.180;2022-09-29T05:38:38;8.30;1.00
14057;DHT22;7103;54.300;10.180;2022-09-29T05:41:10;8.30;1.00
14057;DHT22;7103;54.300;10.180;2022-09-29T05:43:38;8.30;1.00
14057;DHT22;7103;54.300;10.180;2022-09-29T05:46:07;8.30;1.00
14057;DHT22;7103;54.300;10.180;2022-09-29T05:48:35;8.30;1.00
14057;DHT22;7103;54.300;10.180;2022-09-29T05:51:14;8.30;1.00
14057;DHT22;7103;54.300;10.180;2022-09-29T05:53:48;8.30;1.00
14057;DHT22;7103;54.300;10.180;2022-09-29T05:56:18;8.30;1.00
14057;DHT22;7103;54.300;10.180;2022-09-29T05:58:45;8.30;1.00
14057;DHT22;7103;54.300;10.180;2022-09-29T06:01:21;8.40;1.00
14057;DHT22;7103;54.300;10.180;2022-09-29T06:03:48;8.30;1.00
14057;DHT22;7103;54.300;10.180;2022-09-29T06:06:22;8.40;1.00
14057;DHT22;7103;54.300;10.180;2022-09-29T06:08:49;8.50;1.00
14057;DHT22;7103;54.300;10.180;2022-09-29T06:11:27;8.50;1.00
14057;DHT22;7103;54.300;10.180;2022-09-29T06:13:54;8.50;1.00
14057;DHT22;7103;54.300;10.180;2022-09-29T06:16:24;8.50;1.00
14057;DHT22;7103;54.300;10.180;2022-09-29T06:18:52;8.50;1.00
14057;DHT22;7103;54.300;10.180;2022-09-29T06:21:24;8.50;1.00
14057;DHT22;7103;54.300;10.180;2022-09-29T06:23:53;8.50;1.00
14057;DHT22;7103;54.300;10.180;2022-09-29T06:26:20;8.50;1.00
14057;DHT22;7103;54.300;10.180;2022-09-29T06:28:53;8.60;1.00
14057;DHT22;7103;54.300;10.180;2022-09-29T06:31:23;8.60;1.00
14057;DHT22;7103;54.300;10.180;2022-09-29T06:33:50;8.60;1.00
14057;DHT22;7103;54.300;10.180;2022-09-29T06:36:18;8.60;1.00
14057;DHT22;7103;54.300;10.180;2022-09-29T06:39:06;8.60;1.00
14057;DHT22;7103;54.300;10.180;2022-09-29T06:41:33;8.70;1.00
14057;DHT22;7103;54.300;10.180;2022-09-29T06:44:01;8.80;1.00
14057;DHT22;7103;54.300;10.180;2022-09-29T06:46:28;8.80;1.00
14057;DHT22;7103;54.300;10.180;2022-09-29T06:48:55;8.90;1.00
14057;DHT22;7103;54.300;10.180;2022-09-29T06:51:23;8.90;1.00
14057;DHT22;7103;54.300;10.180;2022-09-29T06:54:06;8.90;1.00
14057;DHT22;7103;54.300;10.180;2022-09-29T06:56:38;9.00;1.00
14057;DHT22;7103;54.300;10.180;2022-09-29T06:59:06;9.10;1.00
14057;DHT22;7103;54.300;10.180;2022-09-29T07:01:33;9.10;1.00
14057;DHT22;7103;54.300;10.180;2022-09-29T07:04:00;9.10;1.00
14057;DHT22;7103;54.300;10.180;2022-09-29T07:06:28;9.10;1.00
14057;DHT22;7103;54.300;10.180;2022-09-29T07:08:57;9.30;1.00
14057;DHT22;7103;54.300;10.180;2022-09-29T07:11:25;9.20;1.00
14057;DHT22;7103;54.300;10.180;2022-09-29T07:13:53;9.30;1.00
14057;DHT22;7103;54.300;10.180;2022-09-29T07:16:21;9.30;1.00
14057;DHT22;7103;54.300;10.180;2022-09-29T07:18:51;9.20;1.00
14057;DHT22;7103;54.300;10.180;2022-09-29T07:21:19;9.20;1.00
14057;DHT22;7103;54.300;10.180;2022-09-29T07:23:48;9.30;1.00
14057;DHT22;7103;54.300;10.180;2022-09-29T07:26:16;9.30;1.00
14057;DHT22;7103;54.300;10.180;2022-09-29T07:28:44;9.40;1.00
14057;DHT22;7103;54.300;10.180;2022-09-29T07:31:14;9.40;1.00
14057;DHT22;7103;54.300;10.180;2022-09-29T07:33:43;9.50;1.00
14057;DHT22;7103;54.300;10.180;2022-09-29T07:36:12;9.50;1.00
14057;DHT22;7103;54.300;10.180;2022-09-29T07:38:39;9.50;1.00
14057;DHT22;7103;54.300;10.180;2022-09-29T07:41:08;9.50;1.00
14057;DHT22;7103;54.300;10.180;2022-09-29T07:43:37;9.60;1.00
14057;DHT22;7103;54.300;10.180;2022-09-29T07:46:05;9.60;1.00
14057;DHT22;7103;54.300;10.180;2022-09-29T07:48:33;9.60;1.00
14057;DHT22;7103;54.300;10.180;2022-09-29T07:51:12;9.60;1.00
14057;DHT22;7103;54.300;10.180;2022-09-29T07:53:40;9.60;1.00
14057;DHT22;7103;54.300;10.180;2022-09-29T07:56:09;9.60;1.00
14057;DHT22;7103;54.300;10.180;2022-09-29T07:58:37;9.70;1.00
14057;DHT22;7103;54.300;10.180;2022-09-29T08:01:07;9.70;1.00
14057;DHT22;7103;54.300;10.180;2022-09-29T08:03:37;9.80;1.00
14057;DHT22;7103;54.300;10.180;2022-09-29T08:06:06;9.80;1.00
14057;DHT22;7103;54.300;10.180;2022-09-29T08:08:37;9.90;1.00
14057;DHT22;7103;54.300;10.180;2022-09-29T08:11:10;9.80;1.00
14057;DHT22;7103;54.300;10.180;2022-09-29T08:13:51;9.90;1.00
14057;DHT22;7103;54.300;10.180;2022-09-29T08:16:20;10.00;1.00
14057;DHT22;7103;54.300;10.180;2022-09-29T08:18:47;10.10;1.00
14057;DHT22;7103;54.300;10.180;2022-09-29T08:21:16;10.20;1.00
14057;DHT22;7103;54.300;10.180;2022-09-29T08:23:43;10.20;1.00
14057;DHT22;7103;54.300;10.180;2022-09-29T08:26:12;10.30;1.00
14057;DHT22;7103;54.300;10.180;2022-09-29T08:28:40;10.40;1.00
14057;DHT22;7103;54.300;10.180;2022-09-29T08:31:19;10.50;1.00
14057;DHT22;7103;54.300;10.180;2022-09-29T08:33:48;10.40;1.00
14057;DHT22;7103;54.300;10.180;2022-09-29T08:36:16;10.40;1.00
14057;DHT22;7103;54.300;10.180;2022-09-29T08:38:48;10.30;1.00
14057;DHT22;7103;54.300;10.180;2022-09-29T08:41:45;10.40;1.00
14057;DHT22;7103;54.300;10.180;2022-09-29T08:47:10;10.50;1.00
14057;DHT22;7103;54.300;10.180;2022-09-29T08:49:42;10.50;1.00
14057;DHT22;7103;54.300;10.180;2022-09-29T08:52:16;10.40;1.00
14057;DHT22;7103;54.300;10.180;2022-09-29T08:54:46;10.40;1.00
14057;DHT22;7103;54.300;10.180;2022-09-29T08:57:16;10.40;1.00
14057;DHT22;7103;54.300;10.180;2022-09-29T08:59:58;10.40;1.00
14057;DHT22;7103;54.300;10.180;2022-09-29T09:08:23;10.50;1.00
14057;DHT22;7103;54.300;10.180;2022-09-29T09:22:20;10.50;1.00
14057;DHT22;7103;54.300;10.180;2022-09-29T09:27:48;10.50;1.00
14057;DHT22;7103;54.300;10.180;2022-09-29T09:30:18;10.50;1.00
14057;DHT22;7103;54.300;10.180;2022-09-29T09:32:53;10.50;1.00
14057;DHT22;7103;54.300;10.180;2022-09-29T09:38:03;10.60;1.00
14057;DHT22;7103;54.300;10.180;2022-09-29T09:40:39;10.60;1.00
14057;DHT22;7103;54.300;10.180;2022-09-29T09:43:12;10.60;1.00
14057;DHT22;7103;54.300;10.180;2022-09-29T09:45:53;10.60;1.00
14057;DHT22;7103;54.300;10.180;2022-09-29T09:48:41;10.70;1.00
14057;DHT22;7103;54.300;10.180;2022-09-29T09:57:24;10.80;1.00
14057;DHT22;7103;54.300;10.180;2022-09-29T10:00:14;10.70;1.00
14057;DHT22;7103;54.300;10.180;2022-09-29T10:02:47;10.80;1.00
14057;DHT22;7103;54.300;10.180;2022-09-29T10:05:20;10.80;1.00
14057;DHT22;7103;54.300;10.180;2022-09-29T10:07:50;10.80;1.00
14057;DHT22;7103;54.300;10.180;2022-09-29T10:10:19;10.80;1.00
14057;DHT22;7103;54.300;10.180;2022-09-29T10:12:55;10.80;1.00
14057;DHT22;7103;54.300;10.180;2022-09-29T10:18:22;10.80;1.00
14057;DHT22;7103;54.300;10.180;2022-09-29T10:20:50;10.80;1.00
14057;DHT22;7103;54.300;10.180;2022-09-29T10:23:18;10.80;1.00
14057;DHT22;7103;54.300;10.180;2022-09-29T10:28:24;10.80;1.00
14057;DHT22;7103;54.300;10.180;2022-09-29T10:30:53;10.80;1.00
14057;DHT22;7103;54.300;10.180;2022-09-29T10:33:22;10.80;1.00
14057;DHT22;7103;54.300;10.180;2022-09-29T10:35:50;10.80;1.00
14057;DHT22;7103;54.300;10.180;2022-09-29T10:38:28;10.70;1.00
14057;DHT22;7103;54.300;10.180;2022-09-29T10:41:01;10.80;1.00
14057;DHT22;7103;54.300;10.180;2022-09-29T10:43:37;10.80;1.00
14057;DHT22;7103;54.300;10.180;2022-09-29T10:46:20;10.70;1.00
14057;DHT22;7103;54.300;10.180;2022-09-29T10:51:38;10.90;1.00
14057;DHT22;7103;54.300;10.180;2022-09-29T10:54:07;10.90;1.00
14057;DHT22;7103;54.300;10.180;2022-09-29T10:56:35;10.90;1.00
14057;DHT22;7103;54.300;10.180;2022-09-29T10:59:03;10.90;1.00
14057;DHT22;7103;54.300;10.180;2022-09-29T11:01:34;10.90;1.00
14057;DHT22;7103;54.300;10.180;2022-09-29T11:06:47;11.00;1.00
14057;DHT22;7103;54.300;10.180;2022-09-29T11:16:55;11.00;1.00
14057;DHT22;7103;54.300;10.180;2022-09-29T11:19:22;10.90;1.00
14057;DHT22;7103;54.300;10.180;2022-09-29T11:24:53;10.80;1.00
14057;DHT22;7103;54.300;10.180;2022-09-29T11:30:34;10.90;1.00
14057;DHT22;7103;54.300;10.180;2022-09-29T11:35:38;10.90;1.00
14057;DHT22;7103;54.300;10.180;2022-09-29T11:52:17;10.80;1.00
14057;DHT22;7103;54.300;10.180;2022-09-29T11:55:05;10.90;1.00
14057;DHT22;7103;54.300;10.180;2022-09-29T12:00:09;10.90;1.00
14057;DHT22;7103;54.300;10.180;2022-09-29T12:05:28;10.90;1.00
14057;DHT22;7103;54.300;10.180;2022-09-29T12:13:59;11.00;1.00
14057;DHT22;7103;54.300;10.180;2022-09-29T12:16:36;11.00;1.00
14057;DHT22;7103;54.300;10.180;2022-09-29T12:19:15;11.00;1.00
14057;DHT22;7103;54.300;10.180;2022-09-29T12:21:50;11.10;1.00
14057;DHT22;7103;54.300;10.180;2022-09-29T12:24:37;11.10;1.00
14057;DHT22;7103;54.300;10.180;2022-09-29T12:27:19;11.10;1.00
14057;DHT22;7103;54.300;10.180;2022-09-29T12:30:01;11.10;1.00
14057;DHT22;7103;54.300;10.180;2022-09-29T12:32:36;11.10;1.00
14057;DHT22;7103;54.300;10.180;2022-09-29T12:35:22;11.10;1.00
14057;DHT22;7103;54.300;10.180;2022-09-29T12:38:11;11.10;1.00
14057;DHT22;7103;54.300;10.180;2022-09-29T12:41:09;11.10;1.00
14057;DHT22;7103;54.300;10.180;2022-09-29T12:43:50;11.00;1.00
14057;DHT22;7103;54.300;10.180;2022-09-29T12:46:23;11.00;1.00
14057;DHT22;7103;54.300;10.180;2022-09-29T12:51:56;11.00;1.00
14057;DHT22;7103;54.300;10.180;2022-09-29T12:54:30;11.00;1.00
14057;DHT22;7103;54.300;10.180;2022-09-29T12:57:04;11.00;1.00
14057;DHT22;7103;54.300;10.180;2022-09-29T13:02:00;11.00;1.00
14057;DHT22;7103;54.300;10.180;2022-09-29T13:07:41;11.00;1.00
14057;DHT22;7103;54.300;10.180;2022-09-29T13:10:24;11.00;1.00
14057;DHT22;7103;54.300;10.180;2022-09-29T13:32:42;10.90;1.00
14057;DHT22;7103;54.300;10.180;2022-09-29T13:35:12;10.90;1.00
14057;DHT22;7103;54.300;10.180;2022-09-29T13:37:49;10.90;1.00
14057;DHT22;7103;54.300;10.180;2022-09-29T13:40:27;10.90;1.00
14057;DHT22;7103;54.300;10.180;2022-09-29T13:43:02;10.90;1.00
14057;DHT22;7103;54.300;10.180;2022-09-29T13:48:49;10.90;1.00
14057;DHT22;7103;54.300;10.180;2022-09-29T13:50:51;11.00;1.00
14057;DHT22;7103;54.300;10.180;2022-09-29T13:55:49;10.80;1.00
14057;DHT22;7103;54.300;10.180;2022-09-29T13:58:34;10.90;1.00
14057;DHT22;7103;54.300;10.180;2022-09-29T14:01:04;10.90;1.00
14057;DHT22;7103;54.300;10.180;2022-09-29T14:06:22;10.90;1.00
14057;DHT22;7103;54.300;10.180;2022-09-29T14:09:16;10.90;1.00
14057;DHT22;7103;54.300;10.180;2022-09-29T14:11:48;10.90;1.00
14057;DHT22;7103;54.300;10.180;2022-09-29T14:14:21;10.90;1.00
14057;DHT22;7103;54.300;10.180;2022-09-29T14:16:54;11.00;1.00
14057;DHT22;7103;54.300;10.180;2022-09-29T14:22:03;10.90;1.00
14057;DHT22;7103;54.300;10.180;2022-09-29T14:27:25;10.90;1.00
14057;DHT22;7103;54.300;10.180;2022-09-29T14:30:18;10.90;1.00
14057;DHT22;7103;54.300;10.180;2022-09-29T14:32:56;10.90;1.00
14057;DHT22;7103;54.300;10.180;2022-09-29T14:35:35;10.90;1.00
14057;DHT22;7103;54.300;10.180;2022-09-29T14:41:17;10.90;1.00
14057;DHT22;7103;54.300;10.180;2022-09-29T14:43:48;10.80;1.00
14057;DHT22;7103;54.300;10.180;2022-09-29T14:53:11;10.80;1.00
14057;DHT22;7103;54.300;10.180;2022-09-29T14:56:34;10.80;1.00
14057;DHT22;7103;54.300;10.180;2022-09-29T14:59:10;10.80;1.00
14057;DHT22;7103;54.300;10.180;2022-09-29T15:04:45;10.90;1.00
14057;DHT22;7103;54.300;10.180;2022-09-29T15:07:18;10.90;1.00
14057;DHT22;7103;54.300;10.180;2022-09-29T15:09:57;10.90;1.00
14057;DHT22;7103;54.300;10.180;2022-09-29T15:12:27;10.90;1.00
14057;DHT22;7103;54.300;10.180;2022-09-29T15:14:55;10.90;1.00
14057;DHT22;7103;54.300;10.180;2022-09-29T15:25:39;10.90;1.00
14057;DHT22;7103;54.300;10.180;2022-09-29T15:28:46;10.90;1.00
14057;DHT22;7103;54.300;10.180;2022-09-29T15:31:10;10.80;1.00
14057;DHT22;7103;54.300;10.180;2022-09-29T15:33:39;10.90;1.00
14057;DHT22;7103;54.300;10.180;2022-09-29T15:36:17;10.90;1.00
14057;DHT22;7103;54.300;10.180;2022-09-29T15:38:45;10.90;1.00
14057;DHT22;7103;54.300;10.180;2022-09-29T15:41:18;11.00;1.00
14057;DHT22;7103;54.300;10.180;2022-09-29T15:46:37;11.00;1.00
14057;DHT22;7103;54.300;10.180;2022-09-29T15:49:18;10.90;1.00
14057;DHT22;7103;54.300;10.180;2022-09-29T15:52:19;11.00;1.00
14057;DHT22;7103;54.300;10.180;2022-09-29T15:54:54;10.90;1.00
14057;DHT22;7103;54.300;10.180;2022-09-29T16:05:19;10.90;1.00
14057;DHT22;7103;54.300;10.180;2022-09-29T16:07:59;10.90;1.00
14057;DHT22;7103;54.300;10.180;2022-09-29T16:13:38;11.00;10.10
14057;DHT22;7103;54.300;10.180;2022-09-29T16:16:10;11.00;8.60
14057;DHT22;7103;54.300;10.180;2022-09-29T16:18:46;11.00;10.00
14057;DHT22;7103;54.300;10.180;2022-09-29T16:21:22;11.00;14.40
14057;DHT22;7103;54.300;10.180;2022-09-29T16:26:53;11.00;33.70
14057;DHT22;7103;54.300;10.180;2022-09-29T16:31:52;11.10;57.60
14057;DHT22;7103;54.300;10.180;2022-09-29T16:36:51;11.10;55.80
14057;DHT22;7103;54.300;10.180;2022-09-29T16:39:20;11.20;56.60
14057;DHT22;7103;54.300;10.180;2022-09-29T16:41:53;11.10;59.10
14057;DHT22;7103;54.300;10.180;2022-09-29T16:44:29;11.10;61.70
14057;DHT22;7103;54.300;10.180;2022-09-29T16:47:19;11.10;64.00
14057;DHT22;7103;54.300;10.180;2022-09-29T16:49:51;11.10;61.60
14057;DHT22;7103;54.300;10.180;2022-09-29T17:00:17;11.10;65.30
14057;DHT22;7103;54.300;10.180;2022-09-29T17:02:44;11.20;71.60
14057;DHT22;7103;54.300;10.180;2022-09-29T17:05:11;11.20;73.50
14057;DHT22;7103;54.300;10.180;2022-09-29T17:07:39;11.10;69.30
14057;DHT22;7103;54.300;10.180;2022-09-29T17:10:15;11.10;67.90
14057;DHT22;7103;54.300;10.180;2022-09-29T17:12:43;11.10;72.40
14057;DHT22;7103;54.300;10.180;2022-09-29T17:15:14;11.10;69.40
14057;DHT22;7103;54.300;10.180;2022-09-29T17:17:47;11.10;69.30
14057;DHT22;7103;54.300;10.180;2022-09-29T17:20:17;11.20;69.40
14057;DHT22;7103;54.300;10.180;2022-09-29T17:22:45;11.10;69.30
14057;DHT22;7103;54.300;10.180;2022-09-29T17:25:13;11.10;74.20
14057;DHT22;7103;54.300;10.180;2022-09-29T17:27:42;11.10;71.10
14057;DHT22;7103;54.300;10.180;2022-09-29T17:30:28;11.10;72.40
14057;DHT22;7103;54.300;10.180;2022-09-29T17:32:56;11.00;71.20
14057;DHT22;7103;54.300;10.180;2022-09-29T17:35:32;10.90;73.30
14057;DHT22;7103;54.300;10.180;2022-09-29T17:38:00;10.90;74.30
14057;DHT22;7103;54.300;10.180;2022-09-29T17:40:59;10.90;77.70
14057;DHT22;7103;54.300;10.180;2022-09-29T17:43:28;10.90;79.40
14057;DHT22;7103;54.300;10.180;2022-09-29T17:45:58;10.90;86.30
14057;DHT22;7103;54.300;10.180;2022-09-29T17:48:26;10.90;89.30
14057;DHT22;7103;54.300;10.180;2022-09-29T17:50:54;10.90;89.30
14057;DHT22;7103;54.300;10.180;2022-09-29T17:53:23;10.90;89.30
14057;DHT22;7103;54.300;10.180;2022-09-29T17:55:52;10.90;93.80
14057;DHT22;7103;54.300;10.180;2022-09-29T17:58:20;10.90;93.70
14057;DHT22;7103;54.300;10.180;2022-09-29T18:00:51;10.90;94.30
14057;DHT22;7103;54.300;10.180;2022-09-29T18:03:19;10.90;92.50
14057;DHT22;7103;54.300;10.180;2022-09-29T18:05:49;10.80;92.00
14057;DHT22;7103;54.300;10.180;2022-09-29T18:08:23;10.80;93.50
14057;DHT22;7103;54.300;10.180;2022-09-29T18:10:53;10.80;94.00
14057;DHT22;7103;54.300;10.180;2022-09-29T18:13:21;10.80;94.00
14057;DHT22;7103;54.300;10.180;2022-09-29T18:15:49;10.80;94.00
14057;DHT22;7103;54.300;10.180;2022-09-29T18:18:17;10.80;94.10
14057;DHT22;7103;54.300;10.180;2022-09-29T18:20:46;10.80;96.10
14057;DHT22;7103;54.300;10.180;2022-09-29T18:23:16;10.80;96.10
14057;DHT22;7103;54.300;10.180;2022-09-29T18:25:46;10.80;98.20
14057;DHT22;7103;54.300;10.180;2022-09-29T18:28:14;10.90;99.90
14057;DHT22;7103;54.300;10.180;2022-09-29T18:30:43;10.90;99.90
14057;DHT22;7103;54.300;10.180;2022-09-29T18:33:13;10.90;99.90
14057;DHT22;7103;54.300;10.180;2022-09-29T18:35:49;10.80;99.90
14057;DHT22;7103;54.300;10.180;2022-09-29T18:38:16;10.90;99.90
14057;DHT22;7103;54.300;10.180;2022-09-29T18:40:43;10.90;99.90
14057;DHT22;7103;54.300;10.180;2022-09-29T18:43:12;10.90;99.90
14057;DHT22;7103;54.300;10.180;2022-09-29T18:45:40;10.90;99.90
14057;DHT22;7103;54.300;10.180;2022-09-29T18:48:13;10.90;99.70
14057;DHT22;7103;54.300;10.180;2022-09-29T18:50:46;10.90;99.90
14057;DHT22;7103;54.300;10.180;2022-09-29T18:53:18;10.90;98.20
14057;DHT22;7103;54.300;10.180;2022-09-29T18:55:45;10.90;98.20
14057;DHT22;7103;54.300;10.180;2022-09-29T18:58:16;10.90;97.40
14057;DHT22;7103;54.300;10.180;2022-09-29T19:00:46;10.90;97.20
14057;DHT22;7103;54.300;10.180;2022-09-29T19:03:20;10.90;96.40
14057;DHT22;7103;54.300;10.180;2022-09-29T19:05:47;10.90;96.10
14057;DHT22;7103;54.300;10.180;2022-09-29T19:08:15;10.90;96.70
14057;DHT22;7103;54.300;10.180;2022-09-29T19:10:55;10.90;98.20
14057;DHT22;7103;54.300;10.180;2022-09-29T19:13:26;10.90;98.70
14057;DHT22;7103;54.300;10.180;2022-09-29T19:15:57;10.90;98.60
14057;DHT22;7103;54.300;10.180;2022-09-29T19:18:25;10.90;99.90
14057;DHT22;7103;54.300;10.180;2022-09-29T19:20:54;11.00;99.90
14057;DHT22;7103;54.300;10.180;2022-09-29T19:23:23;10.90;99.90
14057;DHT22;7103;54.300;10.180;2022-09-29T19:25:52;11.00;99.90
14057;DHT22;7103;54.300;10.180;2022-09-29T19:28:21;11.00;99.90
14057;DHT22;7103;54.300;10.180;2022-09-29T19:30:48;10.90;99.90
14057;DHT22;7103;54.300;10.180;2022-09-29T19:33:20;10.90;99.90
14057;DHT22;7103;54.300;10.180;2022-09-29T19:35:52;10.90;99.90
14057;DHT22;7103;54.300;10.180;2022-09-29T19:38:22;10.90;99.90
14057;DHT22;7103;54.300;10.180;2022-09-29T19:40:49;10.90;99.90
14057;DHT22;7103;54.300;10.180;2022-09-29T19:43:17;10.90;99.90
14057;DHT22;7103;54.300;10.180;2022-09-29T19:45:48;10.90;99.90
14057;DHT22;7103;54.300;10.180;2022-09-29T19:48:18;11.00;99.90
14057;DHT22;7103;54.300;10.180;2022-09-29T19:50:46;11.00;99.90